Alpena, MI

8:32 AM EST on February 27, 2015 (GMT -0500)
APRSWXNET Alpena MI US | Change Station
CLOSE
Current Station
Personal Weather Station
Location: Alpena, MI
Elevation: 593 ft
Nearby Weather Stations

Elev 593 ft 45.05 °N, 83.45 °W | Updated 42 minutes ago

Clear
Clear
-5 °F
Feels Like -5 °F
N
1
Wind Variable Wind from WNW
Gusts 3.0 mph

Today
High -- | Low -- °F
--% Chance of Precip.
Yesterday
High -- | Low -- °F
Precip. -- in
7:15 AM 6:18 PM
Waxing Gibbous, 68% visible
Pressure 30.50 in
Visibility 10.0 miles
Clouds Clear
Windchill -5 °F
Dew Point -9 °F
Humidity 84%
Rainfall 0.00 in
Snow Depth Not available.
UV 0 out of 12
Pollen .30 out of 12
Air Quality Not available.
Flu Activity Not available.
METAR KAPN 271254Z AUTO 26003KT 10SM CLR M27/M29 A3042 RMK AO2 SLP327 T12671289

More Conditions Fewer Conditions

Pressure 30.50 in
Visibility 10.0 miles
Clouds Clear
Windchill -5 °F
Dew Point -9 °F
Humidity 84%
Rainfall 0.00 in
Snow Depth Not available.
UV 0 out of 12
Pollen .30 out of 12
Air Quality Not available.
Flu Activity Not available.
METAR KAPN 271254Z AUTO 26003KT 10SM CLR M27/M29 A3042 RMK AO2 SLP327 T12671289

More Conditions Fewer Conditions

Nowcast | as of 8:00 am EST on February 27, 2015

At 9 am...clear. Temperature zero. West winds 7 mph. At 11 am...clear. Temperature 8 above. West winds 7 mph. At 1 PM...clear. Temperature 14. West winds 8 mph. At 3 PM...mostly clear. Temperature 17. West winds 8 mph.

×

10-Day Weather Forecast

Almanac

Astronomy

Feb. 27, 2015 Rise Set
Actual Time
Civil Twilight
Nautical Twilight
Astronomical Twilight
Moon
Length of Visible Light
Length of Day
Tomorrow will be .
, % of the Moon is Illuminated

Today's Extremes

State Highs State Lows

Community

WunderPhotos

Upload Photos

1,800,673 photos uploaded!

WunderBlogs® & News

Nearby

Air Quality

  Air Quality AQ Index Pollutant
Not available.

Snow Depth

Station Depth Elevation

Earthquake Activity

City Distance Mag. Time & Date
Minimum magnitude displayed is 2.5.

Coastal Water Temperatures

Place Temperature

Nearby Weather Stations